Time;durP1;ratioP1;P1;durP2;ratioP2;P2;SDS_P1;SDS_P2;PMS_P1;PMS_P2;Temp;Humidity;BMP_temperature;BMP_pressure;BME280_temperature;BME280_humidity;BME280_pressure;Samples;Min_cycle;Max_cycle;Signal;HPM_P1;HPM_P2
2021/07/16 00:01:00;;;;;;;31.83;26.13;;;;;;;17.13;89.16;99904.31;4972944;28;20038;-67
2021/07/16 00:03:26;;;;;;;26.98;20.45;;;;;;;17.14;89.24;99906.88;4973989;28;20495;-67
2021/07/16 00:05:51;;;;;;;33.97;27.10;;;;;;;17.14;89.27;99904.22;4973346;28;20035;-66
2021/07/16 00:08:16;;;;;;;32.47;27.63;;;;;;;17.14;89.61;99903.38;4971689;28;20171;-66
2021/07/16 00:10:43;;;;;;;25.77;22.35;;;;;;;17.14;89.12;99901.56;4972860;28;20035;-66
2021/07/16 00:13:09;;;;;;;29.60;26.50;;;;;;;17.13;89.38;99913.19;4954351;28;20035;-66
2021/07/16 00:15:34;;;;;;;25.85;21.55;;;;;;;17.10;89.21;99910.72;4972276;28;20050;-66
2021/07/16 00:18:00;;;;;;;34.45;25.38;;;;;;;17.09;89.21;99911.72;4972093;28;20085;-67
2021/07/16 00:20:25;;;;;;;38.08;29.92;;;;;;;17.15;89.26;99907.72;4971645;28;20031;-66
2021/07/16 00:22:50;;;;;;;28.42;22.38;;;;;;;17.11;89.33;99911.59;4971751;28;20042;-67
2021/07/16 00:25:16;;;;;;;25.23;19.63;;;;;;;17.13;88.82;99920.31;4973047;28;20034;-67
2021/07/16 00:27:41;;;;;;;22.83;19.38;;;;;;;17.09;88.92;99914.38;4972187;28;20042;-67
2021/07/16 00:30:11;;;;;;;25.80;22.17;;;;;;;17.11;89.24;99919.59;4955410;28;20030;-66
2021/07/16 00:32:37;;;;;;;22.25;19.88;;;;;;;17.07;89.31;99926.94;4974228;28;20530;-66
2021/07/16 00:35:03;;;;;;;18.70;16.42;;;;;;;17.08;89.17;99927.78;4974378;28;20087;-66
2021/07/16 00:37:29;;;;;;;19.85;17.77;;;;;;;17.07;88.88;99924.28;4972446;28;20027;-67
2021/07/16 00:39:54;;;;;;;33.20;20.23;;;;;;;17.05;88.62;99920.03;4973390;28;20105;-66
2021/07/16 00:42:19;;;;;;;18.92;16.77;;;;;;;17.03;89.20;99920.16;4972796;28;20105;-66
2021/07/16 00:44:45;;;;;;;17.88;16.10;;;;;;;17.03;89.23;99927.28;4972501;28;20038;-66
2021/07/16 00:47:10;;;;;;;32.50;22.52;;;;;;;17.00;88.86;99925.69;4971516;28;20086;-65
2021/07/16 00:49:36;;;;;;;33.20;19.92;;;;;;;16.96;89.25;99929.56;4971084;28;20505;-66
2021/07/16 00:52:03;;;;;;;21.27;16.67;;;;;;;16.92;88.90;99930.75;4971406;28;20035;-65
2021/07/16 00:54:28;;;;;;;22.27;17.05;;;;;;;16.89;89.29;99933.66;4970061;28;20034;-66
2021/07/16 00:56:54;;;;;;;20.95;14.65;;;;;;;16.89;88.92;99934.50;4970684;28;20034;-66
2021/07/16 00:59:20;;;;;;;24.80;18.95;;;;;;;16.94;89.14;99931.50;4971040;28;20105;-66
2021/07/16 01:01:46;;;;;;;33.35;21.13;;;;;;;16.95;88.81;99926.03;4947172;28;20042;-66
2021/07/16 01:04:13;;;;;;;22.17;16.80;;;;;;;16.91;88.79;99927.25;4971034;28;20031;-66
2021/07/16 01:06:39;;;;;;;26.08;21.40;;;;;;;16.85;88.96;99924.16;4970267;28;20057;-66
2021/07/16 01:09:05;;;;;;;32.15;22.08;;;;;;;16.82;89.27;99933.22;4953070;28;20031;-66
2021/07/16 01:11:32;;;;;;;23.40;18.70;;;;;;;16.85;89.43;99934.81;4970447;28;20058;-67
2021/07/16 01:13:57;;;;;;;27.02;18.95;;;;;;;16.88;88.72;99934.59;4972858;28;20483;-66
2021/07/16 01:16:22;;;;;;;38.90;28.88;;;;;;;16.87;88.93;99923.09;4970203;28;20051;-66
2021/07/16 01:18:48;;;;;;;35.72;24.75;;;;;;;16.84;88.85;99933.97;4970767;28;20483;-66
2021/07/16 01:21:13;;;;;;;35.35;26.10;;;;;;;16.78;89.09;99929.09;4970221;28;20027;-65
2021/07/16 01:23:41;;;;;;;39.22;24.15;;;;;;;16.76;89.42;99936.31;4971699;28;20045;-66
2021/07/16 01:26:07;;;;;;;33.35;23.33;;;;;;;16.78;89.26;99936.19;4973676;28;20031;-65
2021/07/16 01:28:37;;;;;;;29.42;23.50;;;;;;;16.73;89.19;99937.38;4974110;28;20034;-66
2021/07/16 01:31:03;;;;;;;28.20;23.67;;;;;;;16.77;89.38;99938.00;4974362;28;20043;-65
2021/07/16 01:33:29;;;;;;;39.72;26.38;;;;;;;16.80;88.82;99937.81;4973916;28;20114;-66
2021/07/16 01:35:55;;;;;;;33.17;25.50;;;;;;;16.73;88.53;99933.88;4974376;28;20039;-64
2021/07/16 01:38:20;;;;;;;27.90;21.38;;;;;;;16.68;88.84;99938.66;4973998;28;20035;-66
2021/07/16 01:40:46;;;;;;;31.70;21.98;;;;;;;16.68;89.12;99938.66;4973844;28;20085;-65
2021/07/16 01:43:12;;;;;;;27.75;22.83;;;;;;;16.66;88.58;99938.81;4974012;28;20049;-65
2021/07/16 01:45:40;;;;;;;32.47;26.23;;;;;;;16.60;88.46;99949.88;4974604;28;20565;-65
2021/07/16 01:48:08;;;;;;;24.50;21.98;;;;;;;16.53;88.72;99941.47;4974166;28;20467;-65
2021/07/16 01:50:34;;;;;;;25.02;20.63;;;;;;;16.54;88.87;99939.69;4957136;28;20057;-66
2021/07/16 01:53:00;;;;;;;31.50;26.98;;;;;;;16.51;88.61;99935.44;4973916;28;20039;-66
2021/07/16 01:55:29;;;;;;;29.75;22.60;;;;;;;16.48;88.33;99935.63;4973694;28;20105;-65
2021/07/16 01:57:59;;;;;;;41.78;25.58;;;;;;;16.51;88.93;99938.09;4973519;28;20380;-66
2021/07/16 02:00:36;;;;;;;25.95;22.05;;;;;;;16.46;88.67;99937.53;4973732;28;20023;-66
2021/07/16 02:03:05;;;;;;;27.05;19.67;;;;;;;16.47;89.34;99931.28;4973353;28;20058;-66
2021/07/16 02:05:31;;;;;;;28.30;19.95;;;;;;;16.45;88.48;99935.84;4973443;28;20411;-66
2021/07/16 02:07:59;;;;;;;23.20;17.08;;;;;;;16.39;88.85;99936.31;4973277;28;20042;-67
2021/07/16 02:10:26;;;;;;;32.35;19.63;;;;;;;16.46;89.18;99942.88;4975892;28;20084;-66
2021/07/16 02:12:52;;;;;;;31.30;22.45;;;;;;;16.48;88.96;99946.28;4973909;28;20399;-67
2021/07/16 02:15:27;;;;;;;29.33;20.00;;;;;;;16.46;88.89;99942.88;4956258;28;20031;-66
2021/07/16 02:17:52;;;;;;;24.67;18.53;;;;;;;16.37;88.75;99945.34;4973032;28;20678;-66
2021/07/16 02:20:26;;;;;;;23.25;19.45;;;;;;;16.31;88.91;99943.97;4973594;28;20027;-66
2021/07/16 02:22:53;;;;;;;23.08;20.05;;;;;;;16.28;89.23;99947.69;4973520;28;20033;-67
2021/07/16 02:25:20;;;;;;;31.92;24.52;;;;;;;16.29;89.28;99954.72;4973459;28;20561;-66
2021/07/16 02:27:47;;;;;;;28.08;20.92;;;;;;;16.27;89.20;99948.66;4973086;28;20125;-66
2021/07/16 02:30:14;;;;;;;28.30;22.15;;;;;;;16.27;89.20;99956.63;4973336;28;20125;-66
2021/07/16 02:32:41;;;;;;;28.00;22.77;;;;;;;16.26;88.80;99956.75;4972995;28;20042;-66
2021/07/16 02:35:07;;;;;;;29.70;23.70;;;;;;;16.24;88.98;99963.97;4972151;28;20042;-66
2021/07/16 02:37:34;;;;;;;30.67;24.70;;;;;;;16.24;89.10;99962.19;4972495;28;20454;-67
2021/07/16 02:40:01;;;;;;;29.13;23.70;;;;;;;16.22;89.42;99957.91;4972658;28;20384;-66
2021/07/16 02:42:26;;;;;;;37.63;26.55;;;;;;;16.25;89.17;99958.56;4972519;28;20549;-66
2021/07/16 02:44:51;;;;;;;36.13;26.05;;;;;;;16.20;88.88;99963.34;4973461;28;20142;-65
2021/07/16 02:47:16;;;;;;;32.63;26.55;;;;;;;16.18;89.68;99961.75;4972612;28;20037;-66
2021/07/16 02:49:42;;;;;;;36.47;27.48;;;;;;;16.15;88.96;99969.94;4972955;28;20034;-66
2021/07/16 02:52:07;;;;;;;36.15;26.75;;;;;;;16.10;89.07;99957.81;4955303;28;20043;-66
2021/07/16 02:54:32;;;;;;;41.60;28.15;;;;;;;16.08;89.04;99962.38;4972629;28;20035;-66
2021/07/16 02:56:58;;;;;;;48.63;28.23;;;;;;;16.05;89.40;99965.25;4972574;28;20054;-66
2021/07/16 02:59:24;;;;;;;40.60;30.15;;;;;;;16.05;89.30;99957.28;4972814;28;20058;-65
2021/07/16 03:02:08;;;;;;;42.13;28.67;;;;;;;16.12;89.19;99971.00;4972913;28;20030;-65
2021/07/16 03:04:34;;;;;;;29.33;22.80;;;;;;;16.12;88.79;99967.47;4972601;28;20451;-66
2021/07/16 03:06:59;;;;;;;40.60;26.73;;;;;;;16.08;88.74;99967.69;4974880;28;20054;-66
2021/07/16 03:09:25;;;;;;;38.55;27.92;;;;;;;16.08;89.14;99967.69;4972670;28;20043;-66
2021/07/16 03:11:50;;;;;;;37.35;27.83;;;;;;;16.09;89.11;99973.88;4972598;28;20033;-66
2021/07/16 03:14:15;;;;;;;51.72;29.30;;;;;;;16.08;88.70;99973.03;4972317;28;20042;-65
2021/07/16 03:16:41;;;;;;;40.97;28.55;;;;;;;15.99;88.18;99984.28;4971932;28;20042;-65
2021/07/16 03:19:06;;;;;;;40.53;26.77;;;;;;;15.96;88.31;99984.50;4972212;28;20042;-66
2021/07/16 03:21:33;;;;;;;35.70;26.52;;;;;;;16.01;88.53;99994.81;4972072;28;20034;-66
2021/07/16 03:23:59;;;;;;;45.22;30.35;;;;;;;16.02;88.40;99986.75;4972263;28;20031;-66
2021/07/16 03:26:24;;;;;;;33.03;22.92;;;;;;;16.06;88.25;99988.22;4955579;28;20045;-65
2021/07/16 03:28:50;;;;;;;37.78;26.23;;;;;;;16.10;87.82;99988.88;4974088;28;20030;-65
2021/07/16 03:31:15;;;;;;;25.70;20.95;;;;;;;16.10;88.28;99984.41;4972377;28;20039;-64
2021/07/16 03:33:41;;;;;;;40.83;28.33;;;;;;;16.13;87.17;99995.81;4972290;28;20046;-64
2021/07/16 03:36:06;;;;;;;39.03;26.88;;;;;;;16.12;87.63;99997.63;4971849;28;20046;-65
2021/07/16 03:38:32;;;;;;;29.02;22.85;;;;;;;16.07;87.58;100005.03;4971794;28;20550;-66
2021/07/16 03:41:00;;;;;;;37.95;23.25;;;;;;;16.06;87.62;100011.31;4971992;28;20061;-66
2021/07/16 03:43:25;;;;;;;35.78;25.75;;;;;;;16.07;87.35;100013.00;4971583;28;20051;-64
2021/07/16 03:45:51;;;;;;;30.70;22.88;;;;;;;16.06;87.44;100014.81;4972137;28;20066;-66
2021/07/16 03:48:17;;;;;;;35.75;23.25;;;;;;;16.01;87.87;100014.28;4971305;28;20035;-63
2021/07/16 03:50:42;;;;;;;36.50;21.80;;;;;;;16.00;87.43;100015.25;4971839;28;20043;-64
2021/07/16 03:53:08;;;;;;;36.47;23.88;;;;;;;15.97;87.21;100018.09;4971754;28;20034;-65
2021/07/16 03:55:33;;;;;;;26.30;20.95;;;;;;;15.97;86.91;100007.47;4971428;28;20509;-65
2021/07/16 03:57:59;;;;;;;32.08;20.25;;;;;;;15.97;87.43;100019.91;4971715;28;20126;-66
2021/07/16 04:00:29;;;;;;;34.63;20.02;;;;;;;16.02;87.07;100026.66;4973406;28;20030;-66
2021/07/16 04:02:56;;;;;;;27.75;18.60;;;;;;;16.02;87.52;100020.44;4971179;28;20054;-65
2021/07/16 04:05:22;;;;;;;36.85;18.98;;;;;;;16.06;87.31;100020.13;4972039;28;20031;-66
2021/07/16 04:07:49;;;;;;;32.25;22.80;;;;;;;16.04;87.24;100013.22;4971365;28;20039;-64
2021/07/16 04:10:17;;;;;;;22.48;16.55;;;;;;;16.03;87.57;100023.03;4971535;28;20114;-65
2021/07/16 04:12:50;;;;;;;25.55;20.27;;;;;;;16.03;87.64;100022.16;4972845;28;20035;-66
2021/07/16 04:15:15;;;;;;;31.48;21.70;;;;;;;16.01;87.47;100018.75;4974032;28;20034;-65
2021/07/16 04:17:40;;;;;;;34.35;22.75;;;;;;;16.00;87.96;100020.56;4972232;28;20399;-65
2021/07/16 04:20:06;;;;;;;29.75;21.45;;;;;;;15.99;88.36;100023.31;4971309;28;20113;-64
2021/07/16 04:22:32;;;;;;;40.92;23.73;;;;;;;15.98;88.14;100025.13;4970978;28;20446;-65
2021/07/16 04:24:57;;;;;;;31.92;21.38;;;;;;;15.96;87.71;100032.38;4971205;28;20096;-67
2021/07/16 04:27:22;;;;;;;19.80;17.08;;;;;;;15.91;88.12;100034.47;4971699;28;20093;-65
2021/07/16 04:29:48;;;;;;;24.77;16.13;;;;;;;15.91;87.96;100037.16;4972061;28;20034;-64
2021/07/16 04:32:14;;;;;;;29.25;18.17;;;;;;;15.89;87.95;100045.22;4972616;28;20078;-65
2021/07/16 04:34:40;;;;;;;34.72;20.85;;;;;;;15.90;87.95;100040.78;4972688;28;20041;-65
2021/07/16 04:37:07;;;;;;;33.83;23.20;;;;;;;15.89;87.95;100047.03;4971128;28;20608;-67
2021/07/16 04:39:33;;;;;;;35.15;19.25;;;;;;;15.91;88.08;100047.78;4971837;28;20039;-65
2021/07/16 04:41:59;;;;;;;33.70;22.58;;;;;;;15.90;88.30;100051.41;4971967;28;20042;-66
2021/07/16 04:44:24;;;;;;;26.58;20.95;;;;;;;15.91;87.99;100046.94;4972834;28;20034;-64
2021/07/16 04:46:50;;;;;;;27.08;19.10;;;;;;;15.92;87.46;100048.63;4971069;28;20054;-64
2021/07/16 04:49:17;;;;;;;33.35;22.73;;;;;;;15.95;87.87;100049.28;4953661;28;20475;-64
2021/07/16 04:51:43;;;;;;;35.78;23.25;;;;;;;15.94;87.38;100049.38;4970978;28;20038;-64
2021/07/16 04:54:08;;;;;;;30.13;21.17;;;;;;;15.95;87.58;100053.72;4971164;28;20034;-64
2021/07/16 04:56:34;;;;;;;31.60;22.15;;;;;;;15.92;87.27;100056.59;4970767;28;20030;-64
2021/07/16 04:59:00;;;;;;;35.30;20.83;;;;;;;15.93;86.81;100047.69;4970222;28;20046;-64
2021/07/16 05:01:26;;;;;;;30.05;23.58;;;;;;;15.91;86.97;100055.75;4970735;28;20037;-65
2021/07/16 05:03:54;;;;;;;34.47;21.90;;;;;;;15.89;87.27;100050.53;4973289;28;20045;-66
2021/07/16 05:06:20;;;;;;;39.38;25.50;;;;;;;15.92;87.22;100053.94;4970515;28;20486;-65
2021/07/16 05:08:46;;;;;;;35.58;23.67;;;;;;;15.90;87.20;100054.06;4970932;28;20042;-64
2021/07/16 05:11:13;;;;;;;39.35;27.67;;;;;;;15.87;87.32;100051.59;4970211;28;20039;-64
2021/07/16 05:13:39;;;;;;;34.45;26.40;;;;;;;15.83;86.86;100058.94;4970165;28;20046;-64
2021/07/16 05:16:06;;;;;;;40.53;25.15;;;;;;;15.82;86.75;100051.03;4970478;28;20035;-65
2021/07/16 05:18:31;;;;;;;47.13;28.30;;;;;;;15.85;86.55;100056.16;4970637;28;20031;-64
2021/07/16 05:20:57;;;;;;;30.83;23.63;;;;;;;15.88;87.41;100055.97;4970503;28;20154;-64
2021/07/16 05:23:23;;;;;;;45.60;27.90;;;;;;;15.88;87.05;100062.13;4970840;28;20453;-66
2021/07/16 05:25:48;;;;;;;52.35;29.52;;;;;;;15.87;87.28;100063.09;4969823;28;20034;-66
2021/07/16 05:28:14;;;;;;;40.53;23.80;;;;;;;15.88;86.97;100058.63;4970002;28;20050;-64
2021/07/16 05:30:39;;;;;;;39.90;24.77;;;;;;;15.87;87.40;100060.44;4970447;28;20384;-66
2021/07/16 05:33:05;;;;;;;34.45;22.60;;;;;;;15.87;87.37;100060.44;4970633;28;20113;-65
2021/07/16 05:35:30;;;;;;;49.80;27.55;;;;;;;15.83;87.32;100058.94;4970414;28;20053;-66
2021/07/16 05:37:57;;;;;;;42.78;26.42;;;;;;;15.82;87.22;100067.00;4969866;28;20046;-63
2021/07/16 05:40:22;;;;;;;41.15;24.27;;;;;;;15.80;87.69;100060.94;4953240;28;20085;-64
2021/07/16 05:42:47;;;;;;;54.30;27.98;;;;;;;15.84;87.74;100062.44;4969857;28;20030;-64
2021/07/16 05:45:13;;;;;;;36.78;24.15;;;;;;;15.84;86.64;100070.41;4970016;28;20471;-64
2021/07/16 05:47:38;;;;;;;28.02;20.75;;;;;;;15.83;87.51;100068.72;4970266;28;20034;-66
2021/07/16 05:50:04;;;;;;;40.08;22.15;;;;;;;15.88;87.34;100063.94;4970918;28;20045;-65
2021/07/16 05:52:32;;;;;;;32.83;21.40;;;;;;;15.88;87.18;100071.91;4970028;28;20042;-65
2021/07/16 05:54:57;;;;;;;39.22;23.23;;;;;;;15.80;86.83;100072.44;4953173;28;20072;-65
2021/07/16 05:57:23;;;;;;;35.63;21.00;;;;;;;15.82;87.33;100074.97;4970248;28;20635;-65
2021/07/16 05:59:48;;;;;;;33.50;19.90;;;;;;;15.81;87.42;100074.13;4972675;28;20051;-66
2021/07/16 06:02:13;;;;;;;23.35;17.23;;;;;;;15.80;87.10;100077.75;4970269;28;20042;-66
2021/07/16 06:04:39;;;;;;;27.17;18.23;;;;;;;15.85;87.55;100080.06;4970142;28;20038;-67
2021/07/16 06:07:04;;;;;;;38.08;21.35;;;;;;;15.85;87.17;100082.75;4970279;28;20043;-65
2021/07/16 06:09:30;;;;;;;34.83;20.98;;;;;;;15.87;87.53;100080.84;4970339;28;20038;-67
2021/07/16 06:11:55;;;;;;;25.83;16.17;;;;;;;15.87;87.54;100078.19;4973363;28;20037;-66
2021/07/16 06:14:22;;;;;;;38.00;20.45;;;;;;;15.85;86.89;100085.41;4973710;28;20086;-67
2021/07/16 06:16:51;;;;;;;32.30;20.25;;;;;;;15.84;87.21;100084.56;4973051;28;20443;-64
2021/07/16 06:19:19;;;;;;;38.45;21.80;;;;;;;15.81;86.33;100091.91;4973459;28;20031;-67
2021/07/16 06:21:45;;;;;;;34.72;20.30;;;;;;;15.80;86.03;100091.03;4973280;28;20069;-65
2021/07/16 06:24:11;;;;;;;29.95;17.92;;;;;;;15.75;85.61;100094.94;4972907;28;20058;-65
2021/07/16 06:26:36;;;;;;;32.00;17.65;;;;;;;15.72;85.47;100098.66;4973068;28;20035;-67
2021/07/16 06:29:05;;;;;;;34.10;18.02;;;;;;;15.70;85.59;100095.25;4973428;28;20039;-67
2021/07/16 06:31:32;;;;;;;27.90;15.82;;;;;;;15.73;86.75;100092.41;4973183;28;20033;-66
2021/07/16 06:33:58;;;;;;;29.90;16.52;;;;;;;15.79;86.81;100097.31;4973131;28;20030;-66
2021/07/16 06:36:23;;;;;;;29.33;15.45;;;;;;;15.84;86.73;100099.66;4973233;28;20518;-66
2021/07/16 06:38:49;;;;;;;36.35;18.13;;;;;;;15.86;86.55;100101.25;4972921;28;20027;-66
2021/07/16 06:41:14;;;;;;;26.48;16.35;;;;;;;15.86;86.43;100105.72;4972707;28;20042;-66
2021/07/16 06:43:40;;;;;;;23.08;13.73;;;;;;;15.86;86.90;100105.72;4972873;28;20122;-66
2021/07/16 06:46:06;;;;;;;22.65;12.43;;;;;;;15.89;85.80;100105.53;4973164;28;20114;-66
2021/07/16 06:48:32;;;;;;;19.33;12.48;;;;;;;15.87;85.18;100102.97;4972711;28;20043;-65
2021/07/16 06:50:57;;;;;;;21.27;12.95;;;;;;;15.88;85.19;100106.50;4973188;28;20526;-66
2021/07/16 06:53:22;;;;;;;34.42;25.10;;;;;;;15.93;84.64;100101.72;4973556;28;20042;-66
2021/07/16 06:55:48;;;;;;;23.55;15.90;;;;;;;15.96;85.09;100108.63;4975611;28;20054;-65
2021/07/16 06:58:13;;;;;;;19.75;13.07;;;;;;;15.99;85.54;100103.94;4955459;28;20459;-67
2021/07/16 07:00:39;;;;;;;17.65;12.40;;;;;;;15.95;83.79;100098.94;4973319;28;20035;-66
2021/07/16 07:03:04;;;;;;;32.15;12.95;;;;;;;15.91;84.68;100097.44;4972492;28;20035;-67
2021/07/16 07:05:30;;;;;;;16.52;12.00;;;;;;;16.00;84.70;100104.81;4975104;28;20047;-66
2021/07/16 07:07:58;;;;;;;17.98;11.30;;;;;;;15.99;83.71;100095.97;4970143;28;20079;-67
2021/07/16 07:10:24;;;;;;;23.80;13.93;;;;;;;15.91;83.88;100108.09;4972168;28;20035;-68
2021/07/16 07:12:49;;;;;;;16.75;11.90;;;;;;;15.89;84.38;100108.19;4975804;28;20042;-66
2021/07/16 07:15:14;;;;;;;15.52;10.38;;;;;;;15.97;85.39;100110.31;4955673;28;20133;-66
2021/07/16 07:17:41;;;;;;;17.65;11.00;;;;;;;16.03;84.80;100116.09;4972789;28;20039;-66
2021/07/16 07:20:08;;;;;;;19.23;14.45;;;;;;;16.03;84.79;100110.78;4973511;28;20035;-68
2021/07/16 07:22:40;;;;;;;26.65;14.18;;;;;;;16.02;84.71;100110.88;4973575;28;20127;-68
2021/07/16 07:25:06;;;;;;;17.55;10.35;;;;;;;16.05;84.80;100116.00;4972663;28;20038;-67
2021/07/16 07:27:35;;;;;;;19.70;11.65;;;;;;;16.10;84.51;100130.69;4971934;28;20051;-67
2021/07/16 07:30:00;;;;;;;14.85;10.02;;;;;;;16.13;84.33;100132.31;4971784;28;20056;-67
2021/07/16 07:32:26;;;;;;;17.35;10.63;;;;;;;16.20;83.81;100132.75;4972058;28;20117;-67
2021/07/16 07:34:51;;;;;;;22.40;12.07;;;;;;;16.22;83.23;100141.44;4972342;28;20043;-66
2021/07/16 07:37:17;;;;;;;14.38;9.60;;;;;;;16.26;83.66;100142.97;4971858;28;20038;-67
2021/07/16 07:39:43;;;;;;;15.88;11.40;;;;;;;16.34;82.39;100142.44;4972011;28;20498;-67
2021/07/16 07:42:11;;;;;;;14.85;9.77;;;;;;;16.35;82.19;100137.03;4953821;28;20046;-67
2021/07/16 07:44:37;;;;;;;14.20;9.40;;;;;;;16.29;82.17;100146.28;4972356;28;20031;-67
2021/07/16 07:47:03;;;;;;;13.52;9.82;;;;;;;16.31;82.41;100144.34;4971343;28;20101;-67
2021/07/16 07:49:28;;;;;;;15.70;13.13;;;;;;;16.33;82.58;100154.06;4971684;28;20026;-67
2021/07/16 07:51:54;;;;;;;17.13;12.02;;;;;;;16.23;81.11;100148.50;4971874;28;20054;-67
2021/07/16 07:54:19;;;;;;;19.17;12.48;;;;;;;16.20;82.10;100148.72;4971680;28;20041;-66
2021/07/16 07:56:44;;;;;;;17.27;11.43;;;;;;;16.23;82.08;100152.00;4971397;28;20034;-67
2021/07/16 07:59:10;;;;;;;18.33;12.30;;;;;;;16.26;82.24;100157.13;4972486;28;20088;-67
2021/07/16 08:01:35;;;;;;;20.33;11.77;;;;;;;16.21;81.15;100158.38;4972573;28;20122;-66
2021/07/16 08:04:01;;;;;;;19.70;12.30;;;;;;;16.18;81.09;100163.91;4971384;28;20038;-66
2021/07/16 08:06:26;;;;;;;18.48;11.07;;;;;;;16.16;80.63;100171.13;4970848;28;20038;-66
2021/07/16 08:08:52;;;;;;;16.45;10.32;;;;;;;16.12;80.90;100162.53;4971895;28;20065;-66
2021/07/16 08:11:17;;;;;;;23.88;11.38;;;;;;;16.08;81.01;100164.53;4971841;28;20038;-66
2021/07/16 08:13:43;;;;;;;19.85;12.43;;;;;;;16.08;81.32;100172.50;4971308;28;20062;-66
2021/07/16 08:16:08;;;;;;;17.38;12.00;;;;;;;16.11;81.14;100168.78;4978071;28;20566;-66
2021/07/16 08:18:34;;;;;;;19.33;12.07;;;;;;;16.23;81.49;100167.13;4985697;28;20125;-65
2021/07/16 08:20:59;;;;;;;17.20;10.93;;;;;;;16.39;81.02;100173.13;4973175;28;20038;-65
2021/07/16 08:23:24;;;;;;;17.95;10.05;;;;;;;16.51;80.81;100174.09;4990444;28;20023;-65
2021/07/16 08:25:50;;;;;;;16.98;10.48;;;;;;;16.58;79.88;100172.72;4984475;28;20042;-64
2021/07/16 08:28:15;;;;;;;23.23;10.80;;;;;;;16.58;79.17;100174.53;4986581;28;20046;-65
2021/07/16 08:30:41;;;;;;;17.20;10.95;;;;;;;16.49;78.20;100176.88;4981853;28;20030;-65
2021/07/16 08:33:06;;;;;;;18.60;9.73;;;;;;;16.57;79.29;100178.16;4984671;28;20117;-64
2021/07/16 08:35:32;;;;;;;16.08;11.13;;;;;;;16.66;78.61;100173.06;4982694;28;20174;-65
2021/07/16 08:37:57;;;;;;;17.67;9.00;;;;;;;16.71;79.23;100178.94;4980469;28;20042;-65
2021/07/16 08:40:23;;;;;;;15.90;10.00;;;;;;;16.71;78.97;100180.72;4980977;28;20460;-65
2021/07/16 08:42:49;;;;;;;16.05;11.02;;;;;;;16.73;79.23;100182.31;4980544;28;20625;-66
2021/07/16 08:45:15;;;;;;;13.70;9.70;;;;;;;16.70;78.69;100190.50;4978836;28;20031;-66
2021/07/16 08:47:42;;;;;;;18.90;10.27;;;;;;;16.70;79.47;100192.34;4984569;28;20043;-67
2021/07/16 08:50:11;;;;;;;15.55;9.80;;;;;;;16.68;79.35;100191.56;4987364;28;20045;-66
2021/07/16 08:52:40;;;;;;;15.95;10.27;;;;;;;16.62;79.02;100197.34;4963655;28;20030;-66
2021/07/16 08:55:07;;;;;;;18.35;10.70;;;;;;;16.55;79.04;100199.56;4971173;28;20445;-66
2021/07/16 08:57:32;;;;;;;22.05;11.88;;;;;;;16.58;79.46;100196.69;4981306;28;20494;-66
2021/07/16 08:59:58;;;;;;;18.67;10.88;;;;;;;16.56;78.48;100195.91;4975760;28;20041;-66
2021/07/16 09:02:29;;;;;;;14.85;8.73;;;;;;;16.56;79.36;100195.91;4978823;28;20039;-66
2021/07/16 09:05:07;;;;;;;20.00;10.45;;;;;;;16.55;79.83;100196.03;4988547;28;20045;-67
2021/07/16 09:07:41;;;;;;;23.65;12.73;;;;;;;16.56;79.70;100211.88;4994675;28;20538;-73
2021/07/16 09:10:09;;;;;;;16.50;10.03;;;;;;;16.58;79.61;100211.81;4984359;28;20754;-71
2021/07/16 09:12:36;;;;;;;15.90;10.45;;;;;;;16.64;79.17;100214.91;4965710;28;20046;-73
2021/07/16 09:15:17;;;;;;;21.08;10.95;;;;;;;16.58;78.73;100214.47;4984081;28;20522;-72
2021/07/16 09:17:44;;;;;;;24.13;12.45;;;;;;;16.49;78.88;100205.28;4986471;28;20041;-72
2021/07/16 09:20:22;;;;;;;16.63;11.02;;;;;;;16.59;79.33;100213.50;5004533;28;20045;-71
2021/07/16 09:23:07;;;;;;;14.85;10.30;;;;;;;16.64;79.46;100212.25;4981900;28;20739;-71
2021/07/16 09:25:33;;;;;;;15.57;10.82;;;;;;;16.70;78.39;100213.63;4975191;28;20041;-72
2021/07/16 09:27:58;;;;;;;29.67;19.63;;;;;;;16.73;78.03;100213.41;4984478;28;20046;-72
2021/07/16 09:30:28;;;;;;;20.95;12.20;;;;;;;17.00;77.42;100212.53;4996704;28;20357;-73
2021/07/16 09:32:58;;;;;;;17.75;10.10;;;;;;;17.26;74.54;100213.38;4990654;28;20148;-73
2021/07/16 09:35:38;;;;;;;17.67;10.02;;;;;;;17.25;74.84;100219.66;4967075;28;20041;-72
2021/07/16 09:38:05;;;;;;;23.08;11.43;;;;;;;17.22;75.28;100218.06;4983913;28;20446;-72
2021/07/16 09:40:34;;;;;;;17.45;9.60;;;;;;;17.19;75.29;100220.94;4973615;28;20042;-71
2021/07/16 09:43:09;;;;;;;15.75;8.75;;;;;;;17.15;75.22;100225.66;4984334;28;20046;-72
2021/07/16 09:45:35;;;;;;;17.40;8.57;;;;;;;16.99;75.22;100224.16;4990956;28;20443;-69
2021/07/16 09:48:20;;;;;;;17.60;9.52;;;;;;;17.00;76.08;100231.16;4977091;28;20141;-70
2021/07/16 09:50:46;;;;;;;18.40;8.65;;;;;;;16.93;74.71;100231.59;4987636;28;20584;-70
2021/07/16 09:53:13;;;;;;;21.85;9.80;;;;;;;16.88;75.18;100236.41;4987453;28;20042;-71
2021/07/16 09:55:41;;;;;;;20.67;9.52;;;;;;;16.82;74.85;100230.63;4987349;28;20486;-72
2021/07/16 09:58:22;;;;;;;12.30;7.35;;;;;;;16.88;74.82;100243.50;4987011;28;20046;-72
2021/07/16 10:00:50;;;;;;;21.10;9.10;;;;;;;16.90;75.48;100241.59;4986921;28;20041;-70
2021/07/16 10:03:17;;;;;;;17.15;7.72;;;;;;;16.95;75.48;100244.78;4987784;28;20517;-73
2021/07/16 10:05:43;;;;;;;22.77;9.23;;;;;;;17.02;74.52;100239.91;4984290;28;20499;-74
2021/07/16 10:08:08;;;;;;;11.40;7.43;;;;;;;17.05;74.54;100239.69;4987694;28;20070;-71
2021/07/16 10:10:34;;;;;;;15.70;7.38;;;;;;;17.07;73.29;100245.78;4987170;28;20116;-71
2021/07/16 10:13:00;;;;;;;13.65;7.00;;;;;;;17.15;72.55;100252.28;4987652;28;20042;-73
2021/07/16 10:15:25;;;;;;;12.60;6.32;;;;;;;17.25;72.50;100249.81;4977813;28;20101;-71
2021/07/16 10:17:53;;;;;;;20.38;7.57;;;;;;;17.38;73.47;100252.50;4967423;28;20045;-72
2021/07/16 10:20:19;;;;;;;18.10;7.43;;;;;;;17.44;71.97;100252.03;4967562;28;20583;-72
2021/07/16 10:22:50;;;;;;;16.45;7.47;;;;;;;17.57;72.33;100250.25;4983024;28;20053;-71
2021/07/16 10:25:18;;;;;;;10.15;7.05;;;;;;;17.65;72.11;100251.50;4987984;28;20038;-71
2021/07/16 10:27:44;;;;;;;13.52;6.65;;;;;;;17.66;72.28;100253.19;4983407;28;20046;-71
2021/07/16 10:30:13;;;;;;;17.33;8.23;;;;;;;17.58;71.17;100265.25;4976499;28;20038;-71
2021/07/16 10:32:50;;;;;;;20.00;7.97;;;;;;;17.45;70.83;100260.88;4983373;28;20613;-71
2021/07/16 10:35:23;;;;;;;10.82;6.88;;;;;;;17.33;72.07;100263.47;4999484;28;20060;-70
2021/07/16 10:38:00;;;;;;;21.63;6.80;;;;;;;17.33;71.81;100262.63;4992922;28;20092;-71
2021/07/16 10:40:43;;;;;;;20.30;9.80;;;;;;;17.33;72.80;100258.16;4988773;28;20030;-70
2021/07/16 10:43:30;;;;;;;18.52;7.68;;;;;;;17.37;72.11;100256.94;4986729;28;20391;-71
2021/07/16 10:45:57;;;;;;;20.92;8.40;;;;;;;17.48;71.56;100258.03;4970740;28;20048;-72
2021/07/16 10:48:31;;;;;;;18.88;7.13;;;;;;;17.62;71.06;100257.88;4986921;28;20412;-72
2021/07/16 10:50:58;;;;;;;21.77;9.65;;;;;;;17.72;71.08;100258.06;4985307;28;20038;-71
2021/07/16 10:53:27;;;;;;;17.70;7.78;;;;;;;17.82;69.49;100251.19;4968256;28;20034;-70
2021/07/16 10:55:55;;;;;;;21.13;8.45;;;;;;;18.09;70.22;100251.00;4973149;28;20093;-71
2021/07/16 10:58:24;;;;;;;26.67;11.70;;;;;;;18.31;68.38;100254.72;4961902;28;20469;-70
2021/07/16 11:00:51;;;;;;;23.55;10.57;;;;;;;18.20;67.18;100253.72;4985987;28;20034;-70
2021/07/16 11:03:19;;;;;;;80.93;20.50;;;;;;;18.18;68.42;100249.44;4986315;28;20518;-72
2021/07/16 11:05:47;;;;;;;30.00;10.18;;;;;;;18.26;68.42;100259.56;4986420;28;20085;-70
2021/07/16 11:08:32;;;;;;;17.67;7.70;;;;;;;18.33;67.42;100248.31;4985797;28;20046;-70
2021/07/16 11:11:12;;;;;;;18.05;8.23;;;;;;;18.47;67.63;100255.31;4984744;28;20030;-72